Latest Weather Observations for Davis*

IDT60801

Issued at 9:31 pm EDT Sunday 7 February 2016 (issued every 30 minutes, with the page automatically refreshed every 10 minutes)

About weather observations | Map of weather stations | Latest weather observations for ANT | Other Formats
Station Details ID: 300000 Name: DAVIS Lat: -68.57 Lon: 77.97 Height: 18.0 m
Data from the previous 72 hours. | See also: Recent months at Davis*
Date/Time
EDT
Temp
°C
App
Temp
°C
Dew
Point
Rel
Hum
%
Delta-T
°C
Wind Press
QNH
hPa
Press
MSL
hPa
Rain
since 9 am
mm
Dir
 
Spd
km/h
Gust
km/h
Spd
kts
Gust
kts
07/09:30pm -1.5 -6.1 -7.8 62 - WNW 9 13 5 7 983.7 - -
07/09:00pm -1.2 -6.5 -7.3 63 - NW 13 15 7 8 983.7 - -
07/08:30pm -1.3 -6.6 -7.2 64 - NW 13 17 7 9 983.7 - -
07/08:00pm -1.3 -6.6 -7.6 62 - N 13 17 7 9 983.5 983.6 -
07/07:30pm -0.6 -6.3 -7.0 62 - NNW 15 17 8 9 983.6 - -
07/07:00pm -1.1 -6.8 -7.6 61 - N 15 19 8 10 983.5 - -
07/06:30pm -1.1 -6.8 -7.2 63 - N 15 20 8 11 983.6 - -
07/06:00pm -1.0 -6.3 -7.8 60 - NNW 13 17 7 9 983.6 - -
07/05:30pm -0.9 -6.9 -6.4 66 - N 17 20 9 11 983.6 - -
07/05:00pm -1.5 -7.6 -7.6 63 - N 17 20 9 11 983.6 983.7 -
07/04:30pm -1.8 -7.9 -7.7 64 - N 17 20 9 11 983.4 - -
07/04:00pm -1.4 -7.1 -7.9 61 - N 15 19 8 10 983.4 - -
07/03:30pm -1.6 -7.3 -7.9 62 - N 15 20 8 11 983.5 - -
07/03:00pm -1.9 -7.2 -7.4 66 - N 13 17 7 9 983.8 - -
07/02:30pm -2.5 -7.5 -8.6 63 - N 11 13 6 7 983.9 - -
07/02:00pm -2.3 -7.0 -8.8 61 - NNE 9 13 5 7 984.0 984.1 -
07/01:30pm -2.5 -7.2 -9.0 61 - NE 9 15 5 8 984.3 - -
07/01:00pm -2.7 -7.8 -8.9 62 - ENE 11 13 6 7 984.3 - -
07/12:30pm -3.0 -8.4 -8.8 64 - NE 13 15 7 8 984.4 - -
07/12:00pm -3.6 -8.7 -9.4 64 - ENE 11 15 6 8 984.4 - -
07/11:30am -4.0 -9.5 -9.8 64 - ENE 13 17 7 9 984.4 - -
07/11:00am -4.3 -10.2 -10.1 64 - ENE 15 17 8 9 984.3 984.4 -
07/10:30am -4.4 -9.9 -9.6 67 - NE 13 17 7 9 984.3 - -
07/10:00am -4.4 -10.2 -9.2 69 - ENE 15 17 8 9 984.3 - -
07/09:30am -4.5 -10.4 -9.3 69 - NE 15 20 8 11 984.3 - -
07/09:00am -4.3 -9.7 -8.8 71 - NE 13 17 7 9 984.3 - -
07/08:30am -4.1 -9.9 -9.1 68 - NE 15 17 8 9 984.2 - -
07/08:00am -3.8 -9.7 -9.6 64 - NNE 15 17 8 9 984.3 984.4 -
07/07:30am -3.6 -8.7 -9.6 63 - NNE 11 15 6 8 984.5 - -
07/07:00am -3.4 -7.9 -7.0 76 - NE 9 13 5 7 984.6 - -
07/06:30am -3.1 -7.6 -6.5 77 - NE 9 11 5 6 984.7 - -
07/06:00am -3.2 -7.7 -6.5 78 - NE 9 11 5 6 984.6 - -
07/05:30am -3.1 -7.9 -5.9 81 - NE 11 13 6 7 984.7 - -
07/05:00am -3.3 -8.1 -6.1 81 - NE 11 13 6 7 984.7 984.8 -
07/04:30am -3.1 -7.8 -5.4 84 - NNE 11 15 6 8 984.7 - -
07/04:00am -3.0 -8.9 -5.8 81 - N 17 20 9 11 984.7 - -
07/03:30am -2.8 -8.7 -5.4 82 - N 17 20 9 11 984.8 - -
07/03:00am -2.8 -8.7 -5.9 79 - N 17 20 9 11 984.9 - -
07/02:30am -2.6 -8.5 -5.4 81 - N 17 19 9 10 985.0 - -
07/02:00am -2.4 -8.8 -5.4 80 - NNE 20 26 11 14 985.0 985.1 -
07/01:30am -2.2 -9.0 -5.2 80 - N 22 28 12 15 985.2 - -
07/01:00am -2.1 -8.9 -5.4 78 - N 22 28 12 15 985.3 - -
07/12:30am -1.7 -8.8 -4.7 80 - N 24 30 13 16 985.4 - -
07/12:00am -1.7 -8.5 -4.9 79 - N 22 28 12 15 985.5 - -
 
Date/Time
EDT
Temp
°C
App
Temp
°C
Dew
Point
Rel
Hum
%
Delta-T
°C
Wind Press
QNH
hPa
Press
MSL
hPa
Rain
since 9 am
mm
Dir
 
Spd
km/h
Gust
km/h
Spd
kts
Gust
kts
06/11:30pm -1.5 -9.0 -4.8 78 - N 26 32 14 17 985.8 - -
06/11:00pm -1.7 -9.6 -4.9 79 - N 28 33 15 18 985.9 986.1 -
06/10:30pm -1.3 -9.2 -4.5 79 - N 28 32 15 17 986.1 - -
06/10:00pm -1.5 -8.9 -4.0 83 - N 26 32 14 17 986.2 - -
06/09:30pm -1.6 -9.0 -3.5 87 - N 26 33 14 18 986.4 - -
06/09:00pm -1.4 -9.1 -3.3 87 - NNE 28 33 15 18 986.5 - -
06/08:30pm -1.7 -9.9 -3.9 85 - NNE 30 35 16 19 986.6 - -
06/08:00pm -1.7 -10.2 -3.6 87 - NNE 32 37 17 20 986.8 987.0 -
06/07:30pm -1.3 -9.8 -3.6 84 - NNE 32 39 17 21 986.8 - -
06/07:00pm -1.2 -9.7 -3.5 84 - NNE 32 35 17 19 986.9 - -
06/06:30pm -1.0 -8.7 -2.7 88 - NNE 28 33 15 18 987.1 - -
06/06:00pm -1.7 -9.8 -3.3 89 - NNE 30 37 16 20 987.2 - -
06/05:30pm -1.5 -10.0 -3.5 86 - NNE 32 37 17 20 987.3 - -
06/05:00pm -1.6 -10.2 -3.9 84 - NNE 32 39 17 21 987.4 987.6 -
06/04:30pm -1.5 -10.2 -4.7 79 - NNE 32 37 17 20 987.5 - -
06/04:00pm -1.2 -9.7 -3.2 86 - NNE 32 39 17 21 987.8 - -
06/03:30pm -2.2 -10.0 -4.1 87 - NNE 28 35 15 19 988.0 - -
06/03:00pm -2.3 -10.1 -3.7 90 - NNE 28 33 15 18 988.2 - -
06/02:30pm -2.1 -9.8 -3.2 92 - NNE 28 33 15 18 988.5 - -
06/02:00pm -2.5 -10.3 -3.6 92 - NNE 28 33 15 18 988.5 988.7 -
06/01:30pm -2.5 -9.9 -3.6 92 - NNE 26 33 14 18 988.6 - -
06/01:00pm -2.2 -8.8 -2.9 95 - NNE 22 26 12 14 988.8 - -
06/12:30pm -2.2 -8.4 -2.9 95 - NE 20 24 11 13 989.0 - -
06/12:00pm -2.1 -7.3 -2.9 94 - NE 15 20 8 11 989.1 - -
06/11:30am -2.2 -7.1 -3.0 94 - NNE 13 17 7 9 989.1 - -
06/11:00am -2.4 -7.3 -3.1 95 - NNE 13 17 7 9 989.1 989.3 -
06/10:30am -2.4 -7.3 -3.4 93 - NNE 13 17 7 9 989.2 - -
06/10:00am -2.3 -7.5 -3.1 94 - NNE 15 19 8 10 989.3 - -
06/09:30am -2.3 -7.6 -3.3 93 - NNE 15 17 8 9 989.3 - -
06/09:00am -2.0 -6.9 -3.6 89 - NNE 13 17 7 9 989.3 - -
06/08:30am -1.8 -6.7 -3.7 87 - NNE 13 17 7 9 989.3 - -
06/08:00am -1.6 -6.2 -3.9 84 - NNE 11 15 6 8 989.3 989.5 -
06/07:30am -1.4 -5.0 -3.9 83 - N 6 7 3 4 989.3 - -
06/07:00am -1.4 -5.2 -3.7 84 - NNE 7 7 4 4 989.2 - -
06/06:30am -1.2 -5.0 -3.9 82 - NE 7 7 4 4 989.1 - -
06/06:00am -1.2 -5.3 -3.2 86 - SE 9 13 5 7 989.0 - -
06/05:30am -1.1 -5.3 -3.6 83 - SSE 9 13 5 7 988.9 - -
06/05:00am -1.3 -5.5 -4.1 81 - SSE 9 13 5 7 988.9 989.1 -
06/04:30am -1.3 -5.9 -4.5 79 - SSE 11 13 6 7 988.8 - -
06/04:00am -1.1 -5.4 -4.6 77 - SSE 9 13 5 7 988.7 - -
06/03:30am -1.0 -5.3 -4.5 77 - SSE 9 11 5 6 988.7 - -
06/03:00am -0.9 -5.2 -4.6 76 - SE 9 13 5 7 988.8 - -
06/02:30am -0.8 -5.4 -4.3 77 - SE 11 13 6 7 988.7 - -
06/02:00am -0.7 -5.7 -4.4 76 - SE 13 15 7 8 988.6 988.8 -
06/01:30am -0.4 -5.0 -4.1 76 - ESE 11 15 6 8 988.5 - -
06/01:00am -0.5 -4.4 -4.2 76 - SE 7 13 4 7 988.5 - -
06/12:30am -0.5 -4.8 -5.1 71 - N 9 11 5 6 988.6 - -
06/12:00am -0.3 -5.1 -5.7 67 - N 11 13 6 7 988.5 - -
 
Date/Time
EDT
Temp
°C
App
Temp
°C
Dew
Point
Rel
Hum
%
Delta-T
°C
Wind Press
QNH
hPa
Press
MSL
hPa
Rain
since 9 am
mm
Dir
 
Spd
km/h
Gust
km/h
Spd
kts
Gust
kts
05/11:30pm 0.0 -4.8 -6.0 64 - NNE 11 13 6 7 988.6 - -
05/11:00pm 0.3 -4.5 -6.3 61 - NNE 11 15 6 8 988.5 988.7 -
05/10:30pm 0.5 -3.9 -6.1 61 - N 9 13 5 7 988.4 - -
05/10:00pm 0.4 -4.8 -6.4 60 - N 13 17 7 9 988.3 - -
05/09:30pm 0.6 -3.5 -6.9 57 - N 7 13 4 7 988.3 - -
05/09:00pm -0.2 -4.0 -5.4 68 - W 6 7 3 4 988.2 - -
05/08:30pm -0.2 -3.9 -4.8 71 - WNW 6 7 3 4 988.2 - -
05/08:00pm -0.3 -4.1 -5.3 69 - WNW 6 7 3 4 988.0 988.2 -
05/07:30pm -0.6 -4.4 -5.4 70 - NNW 6 7 3 4 987.9 - -
05/07:00pm -0.6 -4.9 -5.2 71 - N 9 9 5 5 987.8 - -
05/06:30pm -0.6 -5.0 -5.6 69 - N 9 13 5 7 987.6 - -
05/06:00pm -0.9 -5.3 -5.7 70 - N 9 13 5 7 987.5 - -
05/05:30pm -1.1 -5.9 -5.7 71 - N 11 13 6 7 987.3 - -
05/05:00pm -1.4 -6.6 -6.3 69 - NNE 13 15 7 8 987.1 987.3 -
05/04:30pm -1.0 -6.2 -5.8 70 - N 13 15 7 8 987.0 - -
05/04:00pm -1.3 -6.9 -6.2 69 - N 15 17 8 9 986.9 - -
05/03:30pm -1.6 -7.2 -6.5 69 - NNE 15 19 8 10 986.8 - -
05/03:00pm -1.6 -8.0 -7.3 65 - NNE 19 22 10 12 986.6 - -
05/02:30pm -1.8 -7.9 -7.5 65 - NNE 17 20 9 11 986.7 - -
05/02:00pm -1.8 -8.4 -7.3 66 - NNE 20 24 11 13 986.6 986.8 -
05/01:30pm -1.8 -8.4 -6.5 70 - NNE 20 24 11 13 986.5 - -
05/01:00pm -2.1 -8.7 -7.2 68 - NNE 20 24 11 13 986.5 - -
05/12:30pm -2.1 -8.1 -7.0 69 - NE 17 22 9 12 986.4 - -
05/12:00pm -2.5 -8.6 -7.2 70 - NNE 17 20 9 11 986.3 - -
05/11:30am -2.6 -8.7 -7.7 68 - NE 17 22 9 12 986.3 - -
05/11:00am -2.7 -8.8 -7.8 68 - NE 17 20 9 11 986.2 986.4 -
05/10:30am -2.8 -8.9 -7.9 68 - NNE 17 20 9 11 986.2 - -
05/10:00am -2.9 -8.7 -8.1 67 - NE 15 19 8 10 986.0 - -
05/09:30am -3.1 -8.9 -8.3 67 - NE 15 20 8 11 985.7 - -
05/09:00am -3.1 -9.2 -8.3 67 - NE 17 20 9 11 985.5 - -
05/08:30am -3.3 -9.5 -8.5 67 - NE 17 20 9 11 985.5 - -
05/08:00am -3.3 -9.1 -8.5 67 - NE 15 20 8 11 985.3 985.4 -
05/07:30am -3.3 -9.5 -8.7 66 - NE 17 20 9 11 985.2 - -
05/07:00am -3.2 -9.4 -8.6 66 - NE 17 20 9 11 984.9 - -
05/06:30am -3.2 -9.8 -8.6 66 - NE 19 20 10 11 984.9 - -
05/06:00am -3.2 -9.0 -8.4 67 - ENE 15 17 8 9 984.7 - -
05/05:30am -3.2 -9.0 -8.4 67 - NE 15 19 8 10 984.6 - -
05/05:00am -3.1 -8.5 -8.2 68 - NE 13 17 7 9 984.4 984.5 -
05/04:30am -2.8 -8.6 -8.1 67 - NE 15 17 8 9 984.3 - -
05/04:00am -2.4 -6.9 -6.7 72 - NNE 9 13 5 7 984.2 - -
05/03:30am -2.2 -7.1 -6.7 71 - NNE 11 13 6 7 984.1 - -
05/03:00am -2.0 -7.3 -7.1 68 - N 13 15 7 8 984.0 - -
05/02:30am -1.6 -6.9 -7.5 64 - N 13 15 7 8 984.0 - -
05/02:00am -1.3 -6.7 -8.3 59 - NNE 13 15 7 8 984.0 984.1 -

Other Formats:

Comma delimited format used in spreadsheet applications
http://www.bom.gov.au/fwo/IDT60803/IDT60803.89571.axf

JavaScript Object Notation format (JSON) in row-major order
http://www.bom.gov.au/fwo/IDT60803/IDT60803.89571.json